createdAt,value
2023-04-18T04:02:45.740Z,3.95
2023-04-18T04:06:55.108Z,4.60
2023-04-18T04:10:57.910Z,3.40
2023-04-18T04:15:00.844Z,4.18
2023-04-18T04:19:05.561Z,5.03
2023-04-18T04:23:14.602Z,4.50
2023-04-18T04:27:20.450Z,5.38
2023-04-18T04:31:23.573Z,3.58
2023-04-18T04:35:28.341Z,4.38
2023-04-18T04:39:31.171Z,5.13
2023-04-18T04:43:49.793Z,4.68
2023-04-18T04:47:55.395Z,4.93
2023-04-18T04:52:01.440Z,5.97
2023-04-18T04:56:06.032Z,5.80
2023-04-18T05:00:11.101Z,5.40
2023-04-18T05:04:14.036Z,6.38
2023-04-18T05:08:18.379Z,5.45
2023-04-18T05:12:20.920Z,6.15
2023-04-18T05:16:23.506Z,5.33
2023-04-18T05:20:26.173Z,8.83
2023-04-18T05:24:31.732Z,6.73
2023-04-18T05:28:34.280Z,6.00
2023-04-18T05:32:38.953Z,8.00
2023-04-18T05:36:42.574Z,6.47
2023-04-18T05:40:46.489Z,9.33
2023-04-18T05:44:48.984Z,11.65
2023-04-18T05:48:51.516Z,8.95
2023-04-18T05:52:54.045Z,10.83
2023-04-18T05:56:58.411Z,12.23
2023-04-18T06:01:01.652Z,9.25
2023-04-18T06:05:04.474Z,13.00
2023-04-18T06:09:07.361Z,11.73
2023-04-18T06:13:11.228Z,10.95
2023-04-18T06:17:13.956Z,11.75
2023-04-18T06:21:16.525Z,11.23
2023-04-18T06:25:19.100Z,14.13
2023-04-18T06:29:23.207Z,10.97
2023-04-18T06:33:26.014Z,11.65
2023-04-18T06:37:28.650Z,12.15
2023-04-18T06:41:32.109Z,12.00
2023-04-18T06:49:38.452Z,9.88
2023-04-18T06:53:41.044Z,13.03
2023-04-18T06:57:44.120Z,9.97
2023-04-18T07:01:48.953Z,10.27
2023-04-18T07:05:51.510Z,12.10
2023-04-18T07:09:54.135Z,10.67
2023-04-18T07:13:57.103Z,11.00
2023-04-18T07:18:01.077Z,11.57
2023-04-18T07:22:03.717Z,11.35
2023-04-18T07:26:06.459Z,14.47
2023-04-18T07:30:10.000Z,11.50
2023-04-18T07:34:15.256Z,12.43
2023-04-18T07:38:18.104Z,11.60
2023-04-18T07:42:20.780Z,11.63
2023-04-18T07:46:23.374Z,13.73
2023-04-18T07:50:27.358Z,14.10
2023-04-18T07:54:30.005Z,10.35
2023-04-18T07:58:32.540Z,10.53
2023-04-18T08:02:35.280Z,10.93
2023-04-18T08:06:39.419Z,11.25
2023-04-18T08:10:41.946Z,10.60
2023-04-18T08:14:44.513Z,12.10
2023-04-18T08:18:47.055Z,9.17
2023-04-18T08:26:59.905Z,10.85
2023-04-18T08:31:02.679Z,11.37
2023-04-18T08:35:05.677Z,12.02
2023-04-18T08:39:10.184Z,11.02
2023-04-18T08:43:14.187Z,10.65
2023-04-18T08:47:16.917Z,11.05
2023-04-18T08:51:19.542Z,12.60
2023-04-18T08:55:23.537Z,13.27
2023-04-18T08:59:26.395Z,12.13
2023-04-18T09:03:39.478Z,12.90
2023-04-18T09:07:42.956Z,12.88
2023-04-18T09:19:57.800Z,10.82
2023-04-18T09:24:20.629Z,11.50
2023-04-18T09:28:26.870Z,13.47
2023-04-18T09:32:30.694Z,11.75
2023-04-18T09:36:35.251Z,12.18
2023-04-18T09:40:37.789Z,13.63
2023-04-18T09:44:59.569Z,11.45
2023-04-18T09:49:02.774Z,10.23
2023-04-18T09:53:06.169Z,11.63
2023-04-18T10:01:14.021Z,8.48
2023-04-18T10:05:20.760Z,11.65
2023-04-18T10:09:24.449Z,9.88
2023-04-18T10:13:27.508Z,10.40
2023-04-18T10:17:52.540Z,9.38
2023-04-18T10:22:03.212Z,9.97
2023-04-18T10:26:06.251Z,11.50
2023-04-18T10:30:09.813Z,10.52
2023-04-18T10:34:17.436Z,9.10
2023-04-18T10:38:23.860Z,10.43
2023-04-18T10:43:00.570Z,8.65
2023-04-18T10:47:23.952Z,8.15
2023-04-18T10:51:29.076Z,9.10
2023-04-18T10:55:32.138Z,11.07
2023-04-18T10:59:38.415Z,8.40
2023-04-18T11:03:41.272Z,8.70
2023-04-18T11:07:48.371Z,8.82
2023-04-18T11:12:04.117Z,9.43
2023-04-18T11:16:07.306Z,10.07
2023-04-18T11:20:12.740Z,11.07
2023-04-18T11:24:24.075Z,8.85
2023-04-18T11:28:28.454Z,6.82
2023-04-18T11:32:31.125Z,10.98
2023-04-18T11:36:35.082Z,11.70
2023-04-18T11:40:39.020Z,8.00
2023-04-18T11:44:43.846Z,8.18
2023-04-18T11:48:47.666Z,9.38
2023-04-18T11:52:51.450Z,8.52
2023-04-18T11:56:55.362Z,8.55
2023-04-18T12:00:57.954Z,8.25
2023-04-18T12:05:01.591Z,8.80
2023-04-18T12:09:06.219Z,8.43
2023-04-18T12:13:10.061Z,9.63
2023-04-18T12:17:13.931Z,9.00
2023-04-18T12:21:16.936Z,9.60
2023-04-18T12:25:24.214Z,8.57
2023-04-18T12:29:30.404Z,9.48
2023-04-18T12:33:33.055Z,8.32
2023-04-18T12:37:35.580Z,8.37
2023-04-18T12:41:38.122Z,8.73
2023-04-18T12:45:42.271Z,8.67
2023-04-18T12:49:44.812Z,9.70
2023-04-18T12:53:47.458Z,8.43
2023-04-18T12:57:51.820Z,9.10
2023-04-18T13:01:55.748Z,8.38
2023-04-18T13:05:58.297Z,7.60
2023-04-18T13:10:00.850Z,7.70
2023-04-18T13:14:03.446Z,12.33
2023-04-18T13:18:07.788Z,9.73
2023-04-18T13:22:10.542Z,9.43
2023-04-18T13:26:13.101Z,8.67
2023-04-18T13:30:15.720Z,8.13
2023-04-18T13:34:19.618Z,9.90
2023-04-18T13:38:22.140Z,7.57
2023-04-18T13:42:24.679Z,6.70
2023-04-18T13:46:27.604Z,6.83
2023-04-18T13:50:31.480Z,8.70
2023-04-18T13:54:34.248Z,8.32
2023-04-18T13:58:36.808Z,8.88
2023-04-18T14:02:39.531Z,6.67
2023-04-18T14:06:43.521Z,6.70
2023-04-18T14:10:46.029Z,7.22
2023-04-18T14:14:48.612Z,7.33
2023-04-18T14:18:51.124Z,8.80
2023-04-18T14:22:55.114Z,7.77
2023-04-18T14:26:57.651Z,8.77
2023-04-18T14:31:02.035Z,8.13
2023-04-18T14:35:07.082Z,7.68
2023-04-18T14:39:11.434Z,7.03
2023-04-18T14:43:14.087Z,8.13
2023-04-18T14:47:16.837Z,8.87
2023-04-18T14:51:19.478Z,7.03
2023-04-18T14:55:23.611Z,8.03
2023-04-18T14:59:27.892Z,9.43
2023-04-18T15:03:30.543Z,9.13
2023-04-18T15:07:33.232Z,9.00
2023-04-18T15:11:37.149Z,9.43
2023-04-18T15:15:40.073Z,9.18
2023-04-18T15:19:42.652Z,8.65
2023-04-18T15:23:45.270Z,12.90
2023-04-18T15:27:49.170Z,10.35
2023-04-18T15:31:51.816Z,8.38
2023-04-18T15:35:56.094Z,9.20
2023-04-18T15:39:58.590Z,9.65
2023-04-18T15:44:02.739Z,11.10
2023-04-18T15:48:05.460Z,9.98
2023-04-18T15:52:08.392Z,9.27
2023-04-18T15:56:10.991Z,10.02
2023-04-18T16:00:16.520Z,8.27
2023-04-18T16:04:19.090Z,9.07
2023-04-18T16:08:21.783Z,9.03
2023-04-18T16:12:24.331Z,10.18
2023-04-18T16:16:28.920Z,8.53
2023-04-18T16:20:33.351Z,10.52
2023-04-18T16:24:35.904Z,9.30
2023-04-18T16:28:38.584Z,8.90
2023-04-18T16:32:42.494Z,10.20
2023-04-18T16:36:45.067Z,9.60
2023-04-18T16:40:47.598Z,11.70
2023-04-18T16:44:50.132Z,10.87
2023-04-18T16:48:54.025Z,11.13
2023-04-18T16:52:56.521Z,9.88
2023-04-18T16:56:59.062Z,9.45
2023-04-18T17:01:02.424Z,9.77
2023-04-18T17:09:09.213Z,11.50
2023-04-18T17:13:11.779Z,12.13
2023-04-18T17:17:14.293Z,14.43
2023-04-18T17:21:18.126Z,14.63
2023-04-18T17:25:21.499Z,13.15
2023-04-18T17:33:27.869Z,13.20
2023-04-18T17:37:31.754Z,13.43
2023-04-18T17:41:37.132Z,12.45
2023-04-18T17:45:39.976Z,11.38
2023-04-18T17:49:42.526Z,16.08
2023-04-18T17:53:46.502Z,11.83
2023-04-18T17:57:49.013Z,13.63
2023-04-18T18:01:51.715Z,15.53
2023-04-18T18:05:55.053Z,12.60
2023-04-18T18:14:01.424Z,13.82
2023-04-18T18:18:04.062Z,13.67
2023-04-18T18:22:07.046Z,16.43
2023-04-18T18:26:11.071Z,13.38
2023-04-18T18:30:14.336Z,14.50
2023-04-18T18:34:16.881Z,14.40
2023-04-18T18:38:19.627Z,13.50
2023-04-18T18:42:23.699Z,14.73
2023-04-18T18:46:27.183Z,14.55
2023-04-18T18:50:29.732Z,12.15
2023-04-18T18:54:32.397Z,14.05
2023-04-18T18:58:36.693Z,11.60
2023-04-18T19:02:39.589Z,13.50
2023-04-18T19:06:42.333Z,12.93
2023-04-18T19:10:44.942Z,13.43
2023-04-18T19:14:50.131Z,13.97
2023-04-18T19:18:53.118Z,13.35
2023-04-18T19:22:56.653Z,15.63
2023-04-18T19:26:59.696Z,14.32
2023-04-18T19:31:03.569Z,14.27
2023-04-18T19:35:07.083Z,15.23
2023-04-18T19:43:12.836Z,16.50
2023-04-18T19:47:16.731Z,14.48
2023-04-18T19:51:19.251Z,16.02
2023-04-18T19:55:22.097Z,15.17
2023-04-18T19:59:24.646Z,14.30
2023-04-18T20:03:29.022Z,16.53
2023-04-18T20:07:32.159Z,17.45
2023-04-18T20:11:34.695Z,16.48
2023-04-18T20:15:37.239Z,14.90
2023-04-18T20:19:41.337Z,12.50
2023-04-18T20:23:45.180Z,13.82
2023-04-18T20:27:48.134Z,11.52
2023-04-18T20:31:50.638Z,11.18
2023-04-18T20:35:54.657Z,12.77
2023-04-18T20:39:58.675Z,9.85
2023-04-18T20:44:05.039Z,11.55
2023-04-18T20:48:08.235Z,9.73
2023-04-18T20:52:14.234Z,8.90
2023-04-18T20:56:16.824Z,9.88
